sensor_id;sensor_type;location;lat;lon;timestamp;pressure;altitude;pressure_sealevel;temperature;humidity
11114;BME280;5610;52.154;9.198;2023-06-14T00:00:17;100753.56;;;18.05;71.60
11114;BME280;5610;52.154;9.198;2023-06-14T00:03:02;100746.19;;;17.97;65.52
11114;BME280;5610;52.154;9.198;2023-06-14T00:05:48;100745.31;;;17.97;68.28
11114;BME280;5610;52.154;9.198;2023-06-14T00:08:33;100751.84;;;17.94;71.05
11114;BME280;5610;52.154;9.198;2023-06-14T00:11:20;100755.81;;;17.90;74.41
11114;BME280;5610;52.154;9.198;2023-06-14T00:14:05;100757.94;;;17.87;77.06
11114;BME280;5610;52.154;9.198;2023-06-14T00:16:51;100752.06;;;17.72;72.17
11114;BME280;5610;52.154;9.198;2023-06-14T00:19:42;100747.78;;;17.69;72.31
11114;BME280;5610;52.154;9.198;2023-06-14T00:22:27;100762.50;;;17.55;68.66
11114;BME280;5610;52.154;9.198;2023-06-14T00:25:14;100759.66;;;17.57;70.95
11114;BME280;5610;52.154;9.198;2023-06-14T00:28:01;100764.34;;;17.55;75.02
11114;BME280;5610;52.154;9.198;2023-06-14T00:30:46;100769.00;;;17.53;69.16
11114;BME280;5610;52.154;9.198;2023-06-14T00:33:32;100765.13;;;17.46;69.90
11114;BME280;5610;52.154;9.198;2023-06-14T00:36:17;100767.66;;;17.38;70.18
11114;BME280;5610;52.154;9.198;2023-06-14T00:39:02;100767.19;;;17.33;69.41
11114;BME280;5610;52.154;9.198;2023-06-14T00:41:47;100768.06;;;17.33;69.83
11114;BME280;5610;52.154;9.198;2023-06-14T00:44:33;100769.22;;;17.40;69.94
11114;BME280;5610;52.154;9.198;2023-06-14T00:47:20;100763.84;;;17.40;73.25
11114;BME280;5610;52.154;9.198;2023-06-14T00:50:07;100764.13;;;17.37;74.75
11114;BME280;5610;52.154;9.198;2023-06-14T00:52:52;100777.72;;;17.36;70.21
11114;BME280;5610;52.154;9.198;2023-06-14T00:55:38;100769.47;;;17.27;73.56
11114;BME280;5610;52.154;9.198;2023-06-14T00:58:23;100762.66;;;17.33;72.36
11114;BME280;5610;52.154;9.198;2023-06-14T01:01:10;100769.78;;;17.34;76.23
11114;BME280;5610;52.154;9.198;2023-06-14T01:03:56;100779.38;;;17.27;76.13
11114;BME280;5610;52.154;9.198;2023-06-14T01:06:59;100773.13;;;17.26;68.92
11114;BME280;5610;52.154;9.198;2023-06-14T01:10:09;100782.09;;;17.27;73.28
11114;BME280;5610;52.154;9.198;2023-06-14T01:12:59;100768.63;;;17.27;71.28
11114;BME280;5610;52.154;9.198;2023-06-14T01:15:49;100775.09;;;17.24;79.91
11114;BME280;5610;52.154;9.198;2023-06-14T01:18:36;100772.69;;;17.21;79.91
11114;BME280;5610;52.154;9.198;2023-06-14T01:21:22;100772.06;;;17.08;81.27
11114;BME280;5610;52.154;9.198;2023-06-14T01:24:09;100780.31;;;16.95;81.73
11114;BME280;5610;52.154;9.198;2023-06-14T01:26:55;100776.78;;;16.95;81.88
11114;BME280;5610;52.154;9.198;2023-06-14T01:29:41;100783.72;;;16.77;83.97
11114;BME280;5610;52.154;9.198;2023-06-14T01:32:33;100784.50;;;16.67;85.81
11114;BME280;5610;52.154;9.198;2023-06-14T01:35:19;100784.44;;;16.58;89.34
11114;BME280;5610;52.154;9.198;2023-06-14T01:38:06;100780.22;;;16.44;88.91
11114;BME280;5610;52.154;9.198;2023-06-14T01:40:54;100783.13;;;16.41;90.76
11114;BME280;5610;52.154;9.198;2023-06-14T01:43:43;100782.41;;;16.39;91.52
11114;BME280;5610;52.154;9.198;2023-06-14T01:46:29;100782.22;;;16.31;89.91
11114;BME280;5610;52.154;9.198;2023-06-14T01:49:14;100783.66;;;16.35;90.38
11114;BME280;5610;52.154;9.198;2023-06-14T01:52:00;100788.31;;;16.33;91.76
11114;BME280;5610;52.154;9.198;2023-06-14T01:54:45;100780.88;;;16.25;90.77
11114;BME280;5610;52.154;9.198;2023-06-14T01:57:32;100787.63;;;16.19;84.12
11114;BME280;5610;52.154;9.198;2023-06-14T02:00:18;100782.50;;;16.16;82.93
11114;BME280;5610;52.154;9.198;2023-06-14T02:03:04;100781.25;;;16.20;80.83
11114;BME280;5610;52.154;9.198;2023-06-14T02:05:49;100786.03;;;16.17;81.50
11114;BME280;5610;52.154;9.198;2023-06-14T02:08:35;100783.00;;;16.22;82.30
11114;BME280;5610;52.154;9.198;2023-06-14T02:11:20;100793.97;;;16.18;81.90
11114;BME280;5610;52.154;9.198;2023-06-14T02:14:06;100794.47;;;16.24;82.88
11114;BME280;5610;52.154;9.198;2023-06-14T02:16:55;100791.78;;;16.24;83.72
11114;BME280;5610;52.154;9.198;2023-06-14T02:19:40;100792.91;;;16.10;79.51
11114;BME280;5610;52.154;9.198;2023-06-14T02:22:26;100791.69;;;16.14;81.09
11114;BME280;5610;52.154;9.198;2023-06-14T02:25:11;100796.19;;;16.13;79.45
11114;BME280;5610;52.154;9.198;2023-06-14T02:27:58;100802.69;;;16.00;79.26
11114;BME280;5610;52.154;9.198;2023-06-14T02:30:45;100806.59;;;16.07;79.30
11114;BME280;5610;52.154;9.198;2023-06-14T02:33:30;100809.28;;;16.07;81.03
11114;BME280;5610;52.154;9.198;2023-06-14T02:36:15;100811.09;;;16.06;79.69
11114;BME280;5610;52.154;9.198;2023-06-14T02:39:00;100812.09;;;16.05;81.51
11114;BME280;5610;52.154;9.198;2023-06-14T02:41:45;100813.19;;;16.14;86.04
11114;BME280;5610;52.154;9.198;2023-06-14T02:44:31;100814.41;;;16.10;86.11
11114;BME280;5610;52.154;9.198;2023-06-14T02:47:19;100818.94;;;16.09;85.84
11114;BME280;5610;52.154;9.198;2023-06-14T02:50:05;100812.72;;;16.09;88.42
11114;BME280;5610;52.154;9.198;2023-06-14T02:52:51;100815.41;;;16.09;84.92
11114;BME280;5610;52.154;9.198;2023-06-14T02:55:40;100813.69;;;15.97;83.51
11114;BME280;5610;52.154;9.198;2023-06-14T02:58:25;100820.28;;;16.04;86.56
11114;BME280;5610;52.154;9.198;2023-06-14T03:01:11;100825.06;;;16.00;84.20
11114;BME280;5610;52.154;9.198;2023-06-14T03:03:58;100829.56;;;16.00;85.14
11114;BME280;5610;52.154;9.198;2023-06-14T03:06:43;100829.81;;;15.97;84.11
11114;BME280;5610;52.154;9.198;2023-06-14T03:09:36;100829.81;;;15.97;86.57
11114;BME280;5610;52.154;9.198;2023-06-14T03:12:22;100832.03;;;15.91;86.57
11114;BME280;5610;52.154;9.198;2023-06-14T03:15:09;100830.59;;;15.87;89.90
11114;BME280;5610;52.154;9.198;2023-06-14T03:17:59;100839.50;;;15.88;88.23
11114;BME280;5610;52.154;9.198;2023-06-14T03:20:46;100835.22;;;15.74;89.47
11114;BME280;5610;52.154;9.198;2023-06-14T03:23:31;100846.34;;;15.70;92.10
11114;BME280;5610;52.154;9.198;2023-06-14T03:26:16;100846.47;;;15.68;91.72
11114;BME280;5610;52.154;9.198;2023-06-14T03:29:04;100837.41;;;15.58;92.26
11114;BME280;5610;52.154;9.198;2023-06-14T03:31:59;100844.88;;;15.65;88.81
11114;BME280;5610;52.154;9.198;2023-06-14T03:34:52;100835.13;;;15.64;90.87
11114;BME280;5610;52.154;9.198;2023-06-14T03:37:42;100844.97;;;15.64;93.06
11114;BME280;5610;52.154;9.198;2023-06-14T03:40:27;100847.69;;;15.75;92.73
11114;BME280;5610;52.154;9.198;2023-06-14T03:43:18;100849.03;;;15.81;90.75
11114;BME280;5610;52.154;9.198;2023-06-14T03:46:03;100860.28;;;15.86;90.58
11114;BME280;5610;52.154;9.198;2023-06-14T03:48:51;100854.13;;;15.84;89.59
11114;BME280;5610;52.154;9.198;2023-06-14T03:51:36;100855.50;;;15.89;93.92
11114;BME280;5610;52.154;9.198;2023-06-14T03:54:23;100855.84;;;15.96;95.60
11114;BME280;5610;52.154;9.198;2023-06-14T03:57:10;100867.72;;;15.93;88.88
11114;BME280;5610;52.154;9.198;2023-06-14T03:59:55;100864.53;;;15.88;88.62
11114;BME280;5610;52.154;9.198;2023-06-14T04:02:41;100871.63;;;15.89;89.25
11114;BME280;5610;52.154;9.198;2023-06-14T04:05:28;100882.09;;;15.92;90.71
11114;BME280;5610;52.154;9.198;2023-06-14T04:08:14;100868.31;;;15.97;89.98
11114;BME280;5610;52.154;9.198;2023-06-14T04:11:01;100875.38;;;15.98;92.18
11114;BME280;5610;52.154;9.198;2023-06-14T04:13:46;100878.56;;;16.03;94.88
11114;BME280;5610;52.154;9.198;2023-06-14T04:16:32;100892.72;;;16.05;96.01
11114;BME280;5610;52.154;9.198;2023-06-14T04:19:18;100884.31;;;16.10;94.36
11114;BME280;5610;52.154;9.198;2023-06-14T04:22:03;100894.69;;;16.14;97.58
11114;BME280;5610;52.154;9.198;2023-06-14T04:24:51;100896.75;;;16.11;97.99
11114;BME280;5610;52.154;9.198;2023-06-14T04:27:40;100896.13;;;16.18;99.42
11114;BME280;5610;52.154;9.198;2023-06-14T04:30:26;100901.38;;;16.20;98.04
11114;BME280;5610;52.154;9.198;2023-06-14T04:33:15;100894.66;;;16.26;98.76
11114;BME280;5610;52.154;9.198;2023-06-14T04:36:02;100907.25;;;16.25;100.00
11114;BME280;5610;52.154;9.198;2023-06-14T04:38:49;100904.34;;;16.28;99.91
11114;BME280;5610;52.154;9.198;2023-06-14T04:41:38;100900.16;;;16.35;99.33
11114;BME280;5610;52.154;9.198;2023-06-14T04:44:24;100907.13;;;16.38;98.55
11114;BME280;5610;52.154;9.198;2023-06-14T04:47:14;100915.28;;;16.47;100.00
11114;BME280;5610;52.154;9.198;2023-06-14T04:50:00;100916.03;;;16.50;95.74
11114;BME280;5610;52.154;9.198;2023-06-14T04:52:48;100921.00;;;16.54;96.57
11114;BME280;5610;52.154;9.198;2023-06-14T04:55:35;100930.16;;;16.63;96.49
11114;BME280;5610;52.154;9.198;2023-06-14T04:58:22;100928.44;;;16.62;94.58
11114;BME280;5610;52.154;9.198;2023-06-14T05:01:09;100925.16;;;16.69;95.08
11114;BME280;5610;52.154;9.198;2023-06-14T05:03:55;100920.38;;;16.73;96.07
11114;BME280;5610;52.154;9.198;2023-06-14T05:06:41;100938.09;;;16.75;93.67
11114;BME280;5610;52.154;9.198;2023-06-14T05:09:26;100925.41;;;16.78;93.12
11114;BME280;5610;52.154;9.198;2023-06-14T05:12:12;100925.41;;;16.78;91.25
11114;BME280;5610;52.154;9.198;2023-06-14T05:14:56;100932.44;;;16.90;93.94
11114;BME280;5610;52.154;9.198;2023-06-14T05:17:45;100929.16;;;16.86;91.03
11114;BME280;5610;52.154;9.198;2023-06-14T05:20:32;100927.44;;;16.85;93.90
11114;BME280;5610;52.154;9.198;2023-06-14T05:23:17;100924.69;;;16.96;93.41
11114;BME280;5610;52.154;9.198;2023-06-14T05:26:02;100929.38;;;16.94;93.37
11114;BME280;5610;52.154;9.198;2023-06-14T05:28:48;100933.97;;;17.03;94.19
11114;BME280;5610;52.154;9.198;2023-06-14T05:31:34;100939.75;;;16.99;93.98
11114;BME280;5610;52.154;9.198;2023-06-14T05:34:20;100938.13;;;17.08;94.75
11114;BME280;5610;52.154;9.198;2023-06-14T05:37:06;100939.44;;;17.13;93.44
11114;BME280;5610;52.154;9.198;2023-06-14T05:39:51;100930.13;;;17.17;92.89
11114;BME280;5610;52.154;9.198;2023-06-14T05:42:36;100938.19;;;17.17;92.08
11114;BME280;5610;52.154;9.198;2023-06-14T05:45:21;100936.75;;;17.13;89.84
11114;BME280;5610;52.154;9.198;2023-06-14T05:48:06;100938.91;;;17.19;90.64
11114;BME280;5610;52.154;9.198;2023-06-14T05:50:53;100939.38;;;17.24;89.17
11114;BME280;5610;52.154;9.198;2023-06-14T05:53:39;100951.63;;;17.28;89.38
11114;BME280;5610;52.154;9.198;2023-06-14T05:56:24;100940.09;;;17.26;88.17
11114;BME280;5610;52.154;9.198;2023-06-14T05:59:10;100952.19;;;17.32;89.01
11114;BME280;5610;52.154;9.198;2023-06-14T06:01:55;100954.69;;;17.45;90.88
11114;BME280;5610;52.154;9.198;2023-06-14T06:04:40;100958.44;;;17.53;88.95
11114;BME280;5610;52.154;9.198;2023-06-14T06:07:26;100951.81;;;17.57;87.05
11114;BME280;5610;52.154;9.198;2023-06-14T06:10:12;100959.91;;;17.57;84.18
11114;BME280;5610;52.154;9.198;2023-06-14T06:12:57;100954.13;;;17.62;86.37
11114;BME280;5610;52.154;9.198;2023-06-14T06:15:42;100963.16;;;17.61;86.19
11114;BME280;5610;52.154;9.198;2023-06-14T06:18:28;100967.03;;;17.68;85.12
11114;BME280;5610;52.154;9.198;2023-06-14T06:21:13;100961.09;;;17.86;85.61
11114;BME280;5610;52.154;9.198;2023-06-14T06:24:00;100976.13;;;17.88;85.93
11114;BME280;5610;52.154;9.198;2023-06-14T06:26:47;100970.69;;;17.78;85.32
11114;BME280;5610;52.154;9.198;2023-06-14T06:29:32;100977.59;;;17.92;81.82
11114;BME280;5610;52.154;9.198;2023-06-14T06:32:17;100974.38;;;17.98;83.40
11114;BME280;5610;52.154;9.198;2023-06-14T06:35:03;100986.03;;;18.08;83.09
11114;BME280;5610;52.154;9.198;2023-06-14T06:37:50;100981.81;;;18.16;81.21
11114;BME280;5610;52.154;9.198;2023-06-14T06:40:36;100977.06;;;18.29;81.41
11114;BME280;5610;52.154;9.198;2023-06-14T06:43:22;100981.31;;;18.31;85.21
11114;BME280;5610;52.154;9.198;2023-06-14T06:46:08;100985.53;;;18.55;86.74
11114;BME280;5610;52.154;9.198;2023-06-14T06:48:53;100985.22;;;18.48;83.76
11114;BME280;5610;52.154;9.198;2023-06-14T06:51:41;100983.38;;;18.49;82.83
11114;BME280;5610;52.154;9.198;2023-06-14T06:54:27;100993.28;;;18.69;81.63
11114;BME280;5610;52.154;9.198;2023-06-14T06:57:13;100989.88;;;18.77;81.50
11114;BME280;5610;52.154;9.198;2023-06-14T06:59:59;100991.59;;;18.87;80.33
11114;BME280;5610;52.154;9.198;2023-06-14T07:02:44;100993.03;;;18.91;80.44
11114;BME280;5610;52.154;9.198;2023-06-14T07:05:29;100989.63;;;18.99;78.49
11114;BME280;5610;52.154;9.198;2023-06-14T07:08:14;100988.34;;;19.23;79.32
11114;BME280;5610;52.154;9.198;2023-06-14T07:11:00;100997.19;;;19.34;77.07
11114;BME280;5610;52.154;9.198;2023-06-14T07:13:46;100998.88;;;19.45;77.96
11114;BME280;5610;52.154;9.198;2023-06-14T07:16:32;101004.16;;;19.46;75.18
11114;BME280;5610;52.154;9.198;2023-06-14T07:19:17;101005.28;;;19.54;73.38
11114;BME280;5610;52.154;9.198;2023-06-14T07:22:03;101007.59;;;19.68;74.73
11114;BME280;5610;52.154;9.198;2023-06-14T07:24:48;101010.84;;;19.71;74.29
11114;BME280;5610;52.154;9.198;2023-06-14T07:27:33;101010.84;;;19.81;73.63
11114;BME280;5610;52.154;9.198;2023-06-14T07:30:20;101000.69;;;19.93;71.28
11114;BME280;5610;52.154;9.198;2023-06-14T07:33:09;101009.44;;;20.14;71.15
11114;BME280;5610;52.154;9.198;2023-06-14T07:35:56;101008.16;;;20.18;69.34
11114;BME280;5610;52.154;9.198;2023-06-14T07:38:41;101009.91;;;20.10;69.27
11114;BME280;5610;52.154;9.198;2023-06-14T07:41:26;101007.44;;;20.26;70.74
11114;BME280;5610;52.154;9.198;2023-06-14T07:44:11;101009.06;;;20.37;67.34
11114;BME280;5610;52.154;9.198;2023-06-14T07:46:59;101007.16;;;20.56;66.51
11114;BME280;5610;52.154;9.198;2023-06-14T07:49:44;101005.28;;;20.67;67.06
11114;BME280;5610;52.154;9.198;2023-06-14T07:52:29;101005.06;;;20.78;65.75
11114;BME280;5610;52.154;9.198;2023-06-14T07:55:14;101002.84;;;20.91;65.75
11114;BME280;5610;52.154;9.198;2023-06-14T07:58:00;101010.06;;;21.00;64.12
11114;BME280;5610;52.154;9.198;2023-06-14T08:00:45;101012.16;;;21.06;61.99
11114;BME280;5610;52.154;9.198;2023-06-14T08:03:32;101015.94;;;21.13;63.23
11114;BME280;5610;52.154;9.198;2023-06-14T08:06:18;101009.31;;;21.26;63.22
11114;BME280;5610;52.154;9.198;2023-06-14T08:09:03;101005.69;;;21.35;62.02
11114;BME280;5610;52.154;9.198;2023-06-14T08:11:49;101011.50;;;21.40;62.08
11114;BME280;5610;52.154;9.198;2023-06-14T08:14:34;101002.78;;;21.19;61.31
11114;BME280;5610;52.154;9.198;2023-06-14T08:17:19;101008.72;;;21.50;61.55
11114;BME280;5610;52.154;9.198;2023-06-14T08:20:07;101005.97;;;21.67;59.39
11114;BME280;5610;52.154;9.198;2023-06-14T08:22:52;101006.34;;;21.99;61.29
11114;BME280;5610;52.154;9.198;2023-06-14T08:25:41;101005.78;;;22.13;59.27
11114;BME280;5610;52.154;9.198;2023-06-14T08:28:26;101005.06;;;22.29;57.74
11114;BME280;5610;52.154;9.198;2023-06-14T08:31:11;100997.19;;;22.17;58.59
11114;BME280;5610;52.154;9.198;2023-06-14T08:33:56;101003.44;;;22.44;59.29
11114;BME280;5610;52.154;9.198;2023-06-14T08:36:42;101010.34;;;22.38;57.15
11114;BME280;5610;52.154;9.198;2023-06-14T08:39:28;101019.19;;;22.40;57.03
11114;BME280;5610;52.154;9.198;2023-06-14T08:42:14;101012.88;;;22.32;55.57
11114;BME280;5610;52.154;9.198;2023-06-14T08:44:59;101016.22;;;22.94;56.56
11114;BME280;5610;52.154;9.198;2023-06-14T08:47:45;101010.47;;;23.05;55.49
11114;BME280;5610;52.154;9.198;2023-06-14T08:50:36;101018.28;;;23.16;54.56
11114;BME280;5610;52.154;9.198;2023-06-14T08:53:24;101013.94;;;23.56;54.91
11114;BME280;5610;52.154;9.198;2023-06-14T08:56:11;101018.50;;;24.04;53.02
11114;BME280;5610;52.154;9.198;2023-06-14T08:58:58;101017.41;;;24.38;52.71
11114;BME280;5610;52.154;9.198;2023-06-14T09:01:46;101014.00;;;24.44;52.13
11114;BME280;5610;52.154;9.198;2023-06-14T09:04:32;101005.22;;;25.04;52.20
11114;BME280;5610;52.154;9.198;2023-06-14T09:07:17;101005.13;;;25.20;50.96
11114;BME280;5610;52.154;9.198;2023-06-14T09:10:07;101011.53;;;25.05;50.55
11114;BME280;5610;52.154;9.198;2023-06-14T09:12:53;101014.84;;;25.23;49.40
11114;BME280;5610;52.154;9.198;2023-06-14T09:15:39;101024.84;;;25.31;49.04
11114;BME280;5610;52.154;9.198;2023-06-14T09:18:34;101015.75;;;25.38;48.47
11114;BME280;5610;52.154;9.198;2023-06-14T09:21:19;101023.00;;;25.46;48.42
11114;BME280;5610;52.154;9.198;2023-06-14T09:24:06;101027.44;;;25.47;49.05
11114;BME280;5610;52.154;9.198;2023-06-14T09:26:53;101025.63;;;25.39;47.63
11114;BME280;5610;52.154;9.198;2023-06-14T09:29:38;101013.25;;;25.74;47.78
11114;BME280;5610;52.154;9.198;2023-06-14T09:32:24;101019.91;;;25.72;48.86
11114;BME280;5610;52.154;9.198;2023-06-14T09:35:10;101022.63;;;25.49;47.75
11114;BME280;5610;52.154;9.198;2023-06-14T09:37:55;101021.59;;;25.96;47.67
11114;BME280;5610;52.154;9.198;2023-06-14T09:40:40;101020.97;;;26.38;49.23
11114;BME280;5610;52.154;9.198;2023-06-14T09:43:27;101025.03;;;26.57;47.00
11114;BME280;5610;52.154;9.198;2023-06-14T09:46:13;101019.97;;;26.90;47.08
11114;BME280;5610;52.154;9.198;2023-06-14T09:49:01;101019.16;;;26.75;45.26
11114;BME280;5610;52.154;9.198;2023-06-14T09:51:50;101019.34;;;26.88;44.89
11114;BME280;5610;52.154;9.198;2023-06-14T09:54:40;101022.00;;;26.22;46.35
11114;BME280;5610;52.154;9.198;2023-06-14T09:57:27;101022.25;;;26.27;46.17
11114;BME280;5610;52.154;9.198;2023-06-14T10:00:19;101022.38;;;26.64;44.67
11114;BME280;5610;52.154;9.198;2023-06-14T10:03:08;101026.13;;;27.07;45.34
11114;BME280;5610;52.154;9.198;2023-06-14T10:05:58;101020.91;;;27.33;44.61
11114;BME280;5610;52.154;9.198;2023-06-14T10:08:46;101019.88;;;27.56;43.70
11114;BME280;5610;52.154;9.198;2023-06-14T10:11:34;101020.78;;;27.63;44.06
11114;BME280;5610;52.154;9.198;2023-06-14T10:14:20;101019.41;;;27.95;44.13
11114;BME280;5610;52.154;9.198;2023-06-14T10:17:09;101012.13;;;27.81;42.77
11114;BME280;5610;52.154;9.198;2023-06-14T10:19:56;101018.25;;;28.11;44.41
11114;BME280;5610;52.154;9.198;2023-06-14T10:22:47;101022.72;;;28.18;41.78
11114;BME280;5610;52.154;9.198;2023-06-14T10:25:33;101012.13;;;28.78;41.37
11114;BME280;5610;52.154;9.198;2023-06-14T10:28:20;101005.06;;;29.17;40.90
11114;BME280;5610;52.154;9.198;2023-06-14T10:31:08;101010.03;;;28.87;41.22
11114;BME280;5610;52.154;9.198;2023-06-14T10:33:57;101016.13;;;28.82;39.79
11114;BME280;5610;52.154;9.198;2023-06-14T10:36:42;101004.09;;;28.77;39.96
11114;BME280;5610;52.154;9.198;2023-06-14T10:39:28;100998.63;;;29.71;41.35
11114;BME280;5610;52.154;9.198;2023-06-14T10:42:14;100997.34;;;30.13;39.19
11114;BME280;5610;52.154;9.198;2023-06-14T10:45:00;100988.59;;;30.43;39.10
11114;BME280;5610;52.154;9.198;2023-06-14T10:47:48;100982.97;;;30.24;37.90
11114;BME280;5610;52.154;9.198;2023-06-14T10:50:41;100985.25;;;30.34;38.73
11114;BME280;5610;52.154;9.198;2023-06-14T10:53:28;100988.56;;;30.49;38.65
11114;BME280;5610;52.154;9.198;2023-06-14T10:56:23;100984.09;;;31.06;39.21
11114;BME280;5610;52.154;9.198;2023-06-14T10:59:10;100985.31;;;31.80;37.77
11114;BME280;5610;52.154;9.198;2023-06-14T11:02:03;100977.91;;;32.42;35.40
11114;BME280;5610;52.154;9.198;2023-06-14T11:05:03;100969.06;;;33.84;33.77
11114;BME280;5610;52.154;9.198;2023-06-14T11:08:02;100971.03;;;35.78;32.26
11114;BME280;5610;52.154;9.198;2023-06-14T11:10:58;100958.91;;;38.12;29.76
11114;BME280;5610;52.154;9.198;2023-06-14T11:13:45;100967.00;;;40.54;26.69
11114;BME280;5610;52.154;9.198;2023-06-14T11:16:30;100965.59;;;41.01;26.03
11114;BME280;5610;52.154;9.198;2023-06-14T11:19:17;100971.09;;;42.38;25.10
11114;BME280;5610;52.154;9.198;2023-06-14T11:22:02;100954.97;;;43.29;24.81
11114;BME280;5610;52.154;9.198;2023-06-14T11:24:49;100957.59;;;43.72;24.25
11114;BME280;5610;52.154;9.198;2023-06-14T11:27:34;100951.75;;;44.56;23.23
11114;BME280;5610;52.154;9.198;2023-06-14T11:30:20;100949.53;;;43.98;23.99
11114;BME280;5610;52.154;9.198;2023-06-14T11:33:09;100950.28;;;41.96;24.41
11114;BME280;5610;52.154;9.198;2023-06-14T11:35:54;100946.75;;;43.00;23.95
11114;BME280;5610;52.154;9.198;2023-06-14T11:38:40;100949.97;;;44.60;22.99
11114;BME280;5610;52.154;9.198;2023-06-14T11:41:32;100936.97;;;45.45;22.20
11114;BME280;5610;52.154;9.198;2023-06-14T11:44:17;100944.97;;;44.71;22.95
11114;BME280;5610;52.154;9.198;2023-06-14T11:47:03;100941.69;;;44.27;23.69
11114;BME280;5610;52.154;9.198;2023-06-14T11:49:48;100951.16;;;42.63;24.03
11114;BME280;5610;52.154;9.198;2023-06-14T11:52:34;100945.13;;;40.67;25.91
11114;BME280;5610;52.154;9.198;2023-06-14T11:55:20;100946.81;;;39.77;26.32
11114;BME280;5610;52.154;9.198;2023-06-14T11:58:06;100940.56;;;40.81;26.25
11114;BME280;5610;52.154;9.198;2023-06-14T12:00:52;100939.28;;;41.47;25.33
11114;BME280;5610;52.154;9.198;2023-06-14T12:03:47;100940.69;;;39.70;26.62
11114;BME280;5610;52.154;9.198;2023-06-14T12:06:32;100936.47;;;39.78;27.30
11114;BME280;5610;52.154;9.198;2023-06-14T12:09:20;100930.56;;;41.82;25.33
11114;BME280;5610;52.154;9.198;2023-06-14T12:12:08;100935.59;;;41.51;25.07
11114;BME280;5610;52.154;9.198;2023-06-14T12:14:55;100936.28;;;40.44;26.57
11114;BME280;5610;52.154;9.198;2023-06-14T12:17:42;100931.94;;;38.75;27.17
11114;BME280;5610;52.154;9.198;2023-06-14T12:20:29;100936.53;;;38.39;28.10
11114;BME280;5610;52.154;9.198;2023-06-14T12:23:14;100933.09;;;39.05;27.19
11114;BME280;5610;52.154;9.198;2023-06-14T12:25:59;100929.09;;;40.28;25.73
11114;BME280;5610;52.154;9.198;2023-06-14T12:28:46;100930.59;;;39.54;26.43
11114;BME280;5610;52.154;9.198;2023-06-14T12:31:32;100932.84;;;39.77;26.45
11114;BME280;5610;52.154;9.198;2023-06-14T12:34:17;100920.88;;;41.69;25.63
11114;BME280;5610;52.154;9.198;2023-06-14T12:37:03;100924.25;;;43.70;23.43
11114;BME280;5610;52.154;9.198;2023-06-14T12:39:48;100925.75;;;44.86;22.28
11114;BME280;5610;52.154;9.198;2023-06-14T12:42:34;100927.97;;;45.34;22.23
11114;BME280;5610;52.154;9.198;2023-06-14T12:45:19;100924.13;;;43.75;23.12
11114;BME280;5610;52.154;9.198;2023-06-14T12:48:06;100924.13;;;43.75;25.08
11114;BME280;5610;52.154;9.198;2023-06-14T12:50:53;100921.16;;;43.99;23.73
11114;BME280;5610;52.154;9.198;2023-06-14T12:53:38;100922.09;;;43.95;23.44
11114;BME280;5610;52.154;9.198;2023-06-14T12:56:23;100921.13;;;42.26;24.59
11114;BME280;5610;52.154;9.198;2023-06-14T12:59:08;100926.03;;;40.24;26.77
11114;BME280;5610;52.154;9.198;2023-06-14T13:01:54;100925.09;;;40.99;26.58
11114;BME280;5610;52.154;9.198;2023-06-14T13:04:41;100921.50;;;43.32;24.48
11114;BME280;5610;52.154;9.198;2023-06-14T13:07:26;100921.94;;;45.27;23.64
11114;BME280;5610;52.154;9.198;2023-06-14T13:10:12;100913.91;;;45.34;23.07
11114;BME280;5610;52.154;9.198;2023-06-14T13:12:57;100910.75;;;43.07;24.42
11114;BME280;5610;52.154;9.198;2023-06-14T13:15:44;100914.94;;;40.69;25.55
11114;BME280;5610;52.154;9.198;2023-06-14T13:18:29;100914.69;;;41.43;24.93
11114;BME280;5610;52.154;9.198;2023-06-14T13:21:16;100909.88;;;40.76;25.38
11114;BME280;5610;52.154;9.198;2023-06-14T13:24:01;100918.38;;;41.68;26.09
11114;BME280;5610;52.154;9.198;2023-06-14T13:26:47;100908.88;;;43.81;23.51
11114;BME280;5610;52.154;9.198;2023-06-14T13:29:32;100910.84;;;45.31;22.95
11114;BME280;5610;52.154;9.198;2023-06-14T13:32:20;100916.03;;;46.39;22.17
11114;BME280;5610;52.154;9.198;2023-06-14T13:35:06;100907.50;;;46.96;20.55
11114;BME280;5610;52.154;9.198;2023-06-14T13:37:52;100900.97;;;46.78;20.88
11114;BME280;5610;52.154;9.198;2023-06-14T13:40:39;100905.81;;;47.21;21.02
11114;BME280;5610;52.154;9.198;2023-06-14T13:43:24;100891.38;;;46.62;20.28
11114;BME280;5610;52.154;9.198;2023-06-14T13:46:09;100904.31;;;46.80;20.73
11114;BME280;5610;52.154;9.198;2023-06-14T13:48:54;100899.66;;;46.50;20.06
11114;BME280;5610;52.154;9.198;2023-06-14T13:51:39;100903.28;;;47.28;21.48
11114;BME280;5610;52.154;9.198;2023-06-14T13:54:26;100890.34;;;47.27;20.44
11114;BME280;5610;52.154;9.198;2023-06-14T13:57:11;100891.50;;;47.35;20.56
11114;BME280;5610;52.154;9.198;2023-06-14T13:59:57;100888.34;;;45.53;22.09
11114;BME280;5610;52.154;9.198;2023-06-14T14:02:45;100883.59;;;42.84;23.79
11114;BME280;5610;52.154;9.198;2023-06-14T14:05:30;100872.25;;;40.58;25.31
11114;BME280;5610;52.154;9.198;2023-06-14T14:08:15;100879.59;;;38.92;27.34
11114;BME280;5610;52.154;9.198;2023-06-14T14:11:01;100876.84;;;37.30;28.44
11114;BME280;5610;52.154;9.198;2023-06-14T14:13:47;100881.50;;;35.61;29.39
11114;BME280;5610;52.154;9.198;2023-06-14T14:16:32;100876.03;;;35.66;31.23
11114;BME280;5610;52.154;9.198;2023-06-14T14:19:19;100869.84;;;35.25;31.44
11114;BME280;5610;52.154;9.198;2023-06-14T14:22:04;100869.28;;;34.78;31.68
11114;BME280;5610;52.154;9.198;2023-06-14T14:24:49;100873.22;;;34.82;31.37
11114;BME280;5610;52.154;9.198;2023-06-14T14:27:36;100877.09;;;34.12;32.41
11114;BME280;5610;52.154;9.198;2023-06-14T14:30:21;100874.41;;;33.12;34.47
11114;BME280;5610;52.154;9.198;2023-06-14T14:33:07;100883.91;;;32.44;35.68
11114;BME280;5610;52.154;9.198;2023-06-14T14:35:52;100876.75;;;31.99;36.95
11114;BME280;5610;52.154;9.198;2023-06-14T14:38:37;100878.94;;;31.79;36.21
11114;BME280;5610;52.154;9.198;2023-06-14T14:41:23;100877.31;;;31.47;36.93